Decoded Metar for SBFZ (FORTALEZA in BRAZIL) (IATA:FOR) | Meteo·Mobile Aviation Weather
aviador You're here:

SBFZ Decoded Metar

FORTALEZA in BRAZIL
Report Time2019-03-21 15:00:00
UTC Time2019-03-21 15:33:38
Flight Rules vfr VFR
Wind350° at 08 kt
W.Decomp.*RWY 31: 3.9 kt HW 7.0 kt RCW
W.Rank350° ranks 29
Current wind is above 350° avg. (3.8)
Visibility9999 m
Phenomena:N/A
Clouds:Scattered 020 Hf
Expected CloudBase > 2,400 ft AGL from Temp-Dew spread
CeilingNone
Temp31°C (ISA +16)
Dew Point25°C (70% RH)
Heat Index37.6°C
QNH1011 hPa
Density Alt2,411 ft
Elevation82 ft
Report Wrong Elevation
Raw Report
METAR SBFZ 211500Z 35008KT 9999 SCT020 31/25 Q1011=

Extra information for SBFZ:More info

Metar Taf Metar & Taf Last 4 Metars F.Rules Stats Wind Profile Meteogram Temp Stats Airport Information Weather charts Add Link Nearby VenuesMetar ALERT Operation Metar Decoded Social comments